Birch Island, Maine
Current Conditions -  °F | °C
As of 1:53 AM on Sunday 26 Oct 2014 (Local Time) from KIWI Reporting Station
Overcast Overcast  
Wind Chill: 50°   Ceiling: 5000
Heat Index: 50°   Visibility: 10mi
Dew Point: 46°   Wind: 3mph
Humidity: 86%   Direction: 330°NNW
Pressure: 29.43"   Gusts: NA
Location:  43.903°N, 69.9809°W
Report Text: KIWI 260553Z AUTO 33003KT 10SM OVC050 10/08 A2943 RMK AO2 SLP966 60000 T01000078 10100 20072 56016
Loading
Personal Weather Stations






























Interactive Weather Map
Tropical Storm Tracking
New forecast layout! Learn more

10-Day Weather Forecast

Advertisements
Track Severe Weather on mobile